DAOO/ORN METAR and TAF weather

Enter ICAO airport designator
Station Type Date Time Source
DAOO METAR 2018/07/21 13:30 UTC NOAA

DAOO 211330Z 35014KT 9999 SCT026 30/18 Q1013


Station Type Date Time Source
DAOO Decoded METAR 2018/07/21 13:30 UTC NOAA

Oran / Es Senia, Algeria (DAOO) 35-38N 000-36W 90M
Jul 21, 2018 - 09:30 AM EDT / 2018.07.21 1330 UTC
Wind: from the N (350 degrees) at 16 MPH (14 KT):0
Visibility: greater than 7 mile(s):0
Sky conditions: partly cloudy
Temperature: 86 F (30 C)
Dew Point: 64 F (18 C)
Relative Humidity: 48%
Pressure (altimeter): 29.91 in. Hg (1013 hPa)
ob: DAOO 211330Z 35014KT 9999 SCT026 30/18 Q1013
cycle: 13

Station Type Date Time Source
DAOO TAF 2018/07/21 12:33 UTC NOAA

TAF DAOO 211100Z 2112/2212 23014KT 9999 SCT026
TEMPO 2112/2117 32012KT
BECMG 2117/2119 VRB02KT 8000 FEW026TCU BKN100 PROB30
TEMPO 2119/2202 -TSRA FEW026CB


Example: see airport list